This is the latest recevied weather packets stored in our database for station/object GW1598. If no packets are shown the sender has not sent any weather packets the latest 10 day(s).
| Time | Temp. | Humidity | Pressure | Rain* | Wind** | Luminosity | Snow |
|---|---|---|---|---|---|---|---|
| 1777885574 | 8.89° C | 87% | 1008.8 hPa | 0 mm | - | - | - |
| 1777884142 | 8.89° C | 87% | 1008.8 hPa | 0 mm | - | - | - |
| 1777882695 | 8.33° C | 89% | 1008.8 hPa | 0 mm | - | - | - |
| 1777882336 | 8.33° C | 89% | 1008.8 hPa | 0 mm | - | - | - |
| 1777880176 | 8.33° C | 88% | 1009.1 hPa | 0 mm | - | - | - |
| 1777873517 | 11.11° C | 78% | 1010.1 hPa | 0 mm | - | - | - |
| 1777872802 | 11.11° C | 78% | 1010.1 hPa | 0 mm | - | - | - |
| 1777872104 | 11.11° C | 74% | 1010.1 hPa | 0 mm | - | - | - |
| 1777870313 | 10° C | 77% | 1010.8 hPa | 0 mm | - | - | - |
| 1777868502 | 9.44° C | 81% | 1010.4 hPa | 0 mm | - | - | - |
| 1777867790 | 9.44° C | 82% | 1010.4 hPa | 0 mm | - | - | - |
| 1777865993 | 9.44° C | 79% | 1010.4 hPa | 0 mm | - | - | - |
| 1777864885 | 9.44° C | 78% | 1010.4 hPa | 0 mm | - | - | - |
| 1777861667 | 10.56° C | 73% | 1010.4 hPa | 0 mm | - | - | - |
| 1777860233 | 11.11° C | 69% | 1010.4 hPa | 0 mm | - | - | - |
| 1777859131 | 11.67° C | 65% | 1010.1 hPa | 0 mm | - | - | - |
| 1777855531 | 13.33° C | 56% | 1010.4 hPa | 0 mm | - | - | - |
| 1777854817 | 13.33° C | 56% | 1010.4 hPa | 0 mm | - | - | - |
| 1777847952 | 16.67° C | 37% | 1011.5 hPa | 0 mm | - | - | - |
| 1777847631 | 16.67° C | 37% | 1011.5 hPa | 0 mm | - | - | - |
| 1777847247 | 16.67° C | 38% | 1011.5 hPa | 0 mm | - | - | - |
| 1777845814 | 16.67° C | 37% | 1011.5 hPa | 0 mm | - | - | - |
| 1777840754 | 16.11° C | 41% | 1011.5 hPa | 0 mm | - | - | - |
| 1777837175 | 15.56° C | 40% | 1013.2 hPa | 0 mm | - | - | - |
| 1777829958 | 13.89° C | 44% | 1014.5 hPa | 0 mm | - | - | - |
* Rain since midnight (hover to see other rain measurements)
** Current wind speed in m/s (hover to see current wind gust speed)